Time;durP1;ratioP1;P1;durP2;ratioP2;P2;SDS_P1;SDS_P2;PMS_P1;PMS_P2;Temp;Humidity;BMP_temperature;BMP_pressure;BME280_temperature;BME280_humidity;BME280_pressure;Samples;Min_cycle;Max_cycle;Signal;HPM_P1;HPM_P2
2023/05/11 00:00:27;;;;;;;;;;;12.00;99.90;;;;;;5171574;27;19923;-79
2023/05/11 00:02:53;;;;;;;;;;;12.00;99.90;;;;;;5141988;27;19927;-82
2023/05/11 00:05:18;;;;;;;;;;;12.00;99.90;;;;;;5147339;27;19966;-79
2023/05/11 00:07:44;;;;;;;;;;;12.00;99.90;;;;;;5141442;27;20371;-78
2023/05/11 00:10:10;;;;;;;;;;;12.00;99.90;;;;;;5141966;27;19937;-79
2023/05/11 00:12:35;;;;;;;;;;;12.00;99.90;;;;;;5141093;27;19930;-81
2023/05/11 00:15:01;;;;;;;;;;;12.00;99.90;;;;;;5151767;27;19934;-79
2023/05/11 00:17:27;;;;;;;;;;;11.90;99.90;;;;;;5155250;27;20391;-78
2023/05/11 00:19:52;;;;;;;;;;;12.00;99.90;;;;;;5135227;27;19926;-78
2023/05/11 00:22:18;;;;;;;;;;;11.90;99.90;;;;;;5173250;27;19927;-80
2023/05/11 00:24:43;;;;;;;;;;;11.90;99.90;;;;;;5142432;27;19927;-78
2023/05/11 00:27:09;;;;;;;;;;;12.00;99.90;;;;;;5163474;27;19968;-78
2023/05/11 00:29:34;;;;;;;;;;;11.90;99.90;;;;;;5152610;27;19941;-79
2023/05/11 00:32:00;;;;;;;;;;;11.90;99.90;;;;;;5148424;27;19966;-79
2023/05/11 00:34:26;;;;;;;;;;;11.90;99.90;;;;;;5151115;27;20565;-78
2023/05/11 00:36:51;;;;;;;;;;;11.90;99.90;;;;;;5162296;27;19930;-79
2023/05/11 00:39:17;;;;;;;;;;;11.90;99.90;;;;;;5166480;27;19923;-79
2023/05/11 00:41:42;;;;;;;;;;;11.80;99.90;;;;;;5133835;27;19933;-79
2023/05/11 00:44:08;;;;;;;;;;;11.80;99.90;;;;;;5151402;27;19930;-79
2023/05/11 00:46:34;;;;;;;;;;;11.80;99.90;;;;;;5145325;27;19986;-78
2023/05/11 00:48:59;;;;;;;;;;;11.80;99.90;;;;;;5150503;27;19922;-78
2023/05/11 00:51:26;;;;;;;;;;;11.80;99.90;;;;;;5150340;27;20013;-78
2023/05/11 00:53:52;;;;;;;;;;;11.80;99.90;;;;;;5132807;27;19974;-79
2023/05/11 00:56:18;;;;;;;;;;;11.80;99.90;;;;;;5126151;27;19930;-78
2023/05/11 00:58:44;;;;;;;;;;;11.80;99.90;;;;;;5146193;27;20036;-79
2023/05/11 01:01:10;;;;;;;;;;;11.70;99.90;;;;;;5150499;27;20540;-79
2023/05/11 01:03:36;;;;;;;;;;;11.70;99.90;;;;;;5133005;27;20346;-79
2023/05/11 01:06:15;;;;;;;;;;;11.70;99.90;;;;;;5144895;27;19934;-79
2023/05/11 01:08:45;;;;;;;;;;;11.70;99.90;;;;;;5147622;27;19922;-78
2023/05/11 01:11:22;;;;;;;;;;;11.70;99.90;;;;;;5146273;27;20335;-79
2023/05/11 01:13:51;;;;;;;;;;;11.70;99.90;;;;;;5164183;27;19923;-79
2023/05/11 01:16:23;;;;;;;;;;;11.70;99.90;;;;;;5144068;27;19923;-79
2023/05/11 01:19:00;;;;;;;;;;;11.70;99.90;;;;;;5150193;27;19981;-79
2023/05/11 01:21:32;;;;;;;;;;;11.70;99.90;;;;;;5162553;27;19973;-79
2023/05/11 01:23:57;;;;;;;;;;;11.70;99.90;;;;;;5167764;27;19962;-79
2023/05/11 01:26:33;;;;;;;;;;;11.70;99.90;;;;;;5151686;27;19984;-79
2023/05/11 01:29:25;;;;;;;;;;;11.60;99.90;;;;;;5148853;27;19923;-79
2023/05/11 01:31:53;;;;;;;;;;;11.60;99.90;;;;;;5109765;27;19933;-79
2023/05/11 01:34:20;;;;;;;;;;;11.60;99.90;;;;;;5150611;27;20592;-80
2023/05/11 01:37:06;;;;;;;;;;;11.60;99.90;;;;;;5149362;27;19949;-82
2023/05/11 01:39:34;;;;;;;;;;;11.60;99.90;;;;;;5148999;27;20918;-80
2023/05/11 01:42:05;;;;;;;;;;;11.60;99.90;;;;;;5170543;27;19973;-79
2023/05/11 01:44:32;;;;;;;;;;;11.60;99.90;;;;;;5171672;27;19933;-79
2023/05/11 01:46:59;;;;;;;;;;;11.50;99.90;;;;;;5156651;27;19993;-79
2023/05/11 01:49:25;;;;;;;;;;;11.50;99.90;;;;;;5146701;27;19926;-79
2023/05/11 01:51:52;;;;;;;;;;;11.50;99.90;;;;;;5136798;27;20017;-81
2023/05/11 01:54:18;;;;;;;;;;;11.50;99.90;;;;;;5154087;27;19923;-79
2023/05/11 01:56:46;;;;;;;;;;;11.50;99.90;;;;;;5171156;27;20268;-79
2023/05/11 01:59:13;;;;;;;;;;;11.50;99.90;;;;;;5149437;27;19923;-79
2023/05/11 02:01:39;;;;;;;;;;;11.50;99.90;;;;;;5150469;27;20034;-79
2023/05/11 02:04:06;;;;;;;;;;;11.50;99.90;;;;;;5174104;27;19923;-79
2023/05/11 02:06:33;;;;;;;;;;;11.50;99.90;;;;;;5149809;27;19934;-80
2023/05/11 02:08:59;;;;;;;;;;;11.50;99.90;;;;;;5134699;27;19927;-79
2023/05/11 02:11:25;;;;;;;;;;;11.50;99.90;;;;;;5149900;27;19927;-78
2023/05/11 02:13:52;;;;;;;;;;;11.50;99.90;;;;;;5129323;27;20602;-79
2023/05/11 02:16:18;;;;;;;;;;;11.50;99.90;;;;;;5145875;27;19967;-78
2023/05/11 02:18:44;;;;;;;;;;;11.50;99.90;;;;;;5150313;27;19930;-79
2023/05/11 02:21:10;;;;;;;;;;;11.50;99.90;;;;;;5169335;27;19959;-79
2023/05/11 02:23:36;;;;;;;;;;;11.50;99.90;;;;;;5154014;27;19934;-79
2023/05/11 02:26:02;;;;;;;;;;;11.50;99.90;;;;;;5173407;27;19926;-79
2023/05/11 02:28:28;;;;;;;;;;;11.50;99.90;;;;;;5141372;27;19967;-78
2023/05/11 02:30:55;;;;;;;;;;;11.50;99.90;;;;;;5148456;27;19970;-80
2023/05/11 02:33:24;;;;;;;;;;;11.50;99.90;;;;;;5149680;27;19931;-79
2023/05/11 02:35:50;;;;;;;;;;;11.50;99.90;;;;;;5133313;27;19923;-78
2023/05/11 02:38:16;;;;;;;;;;;11.40;99.90;;;;;;5143139;27;19979;-81
2023/05/11 02:40:45;;;;;;;;;;;11.40;99.90;;;;;;5144657;27;20340;-78
2023/05/11 02:43:12;;;;;;;;;;;11.50;99.90;;;;;;5126721;27;19930;-78
2023/05/11 02:45:40;;;;;;;;;;;11.50;99.90;;;;;;5149083;27;19930;-78
2023/05/11 02:48:07;;;;;;;;;;;11.50;99.90;;;;;;5157388;27;19923;-79
2023/05/11 02:50:35;;;;;;;;;;;11.40;99.90;;;;;;5152072;27;19923;-78
2023/05/11 02:53:05;;;;;;;;;;;11.40;99.90;;;;;;5166915;27;19938;-78
2023/05/11 02:55:31;;;;;;;;;;;11.40;99.90;;;;;;5143147;27;21187;-78
2023/05/11 02:57:56;;;;;;;;;;;11.40;99.90;;;;;;5148625;27;20029;-79
2023/05/11 03:00:22;;;;;;;;;;;11.40;99.90;;;;;;5127194;27;19974;-79
2023/05/11 03:02:48;;;;;;;;;;;11.30;99.90;;;;;;5149933;27;19938;-78
2023/05/11 03:05:13;;;;;;;;;;;11.40;99.90;;;;;;5143996;27;19938;-79
2023/05/11 03:07:39;;;;;;;;;;;11.40;99.90;;;;;;5154404;27;19970;-79
2023/05/11 03:10:07;;;;;;;;;;;11.40;99.90;;;;;;5128674;27;19926;-78
2023/05/11 03:12:33;;;;;;;;;;;11.30;99.90;;;;;;5145601;27;19922;-79
2023/05/11 03:14:59;;;;;;;;;;;11.30;99.90;;;;;;5146913;27;19926;-78
2023/05/11 03:17:26;;;;;;;;;;;11.30;99.90;;;;;;5162837;27;20013;-78
2023/05/11 03:19:52;;;;;;;;;;;11.30;99.90;;;;;;5136284;27;19934;-79
2023/05/11 03:22:18;;;;;;;;;;;11.30;99.90;;;;;;5157151;27;19923;-78
2023/05/11 03:24:44;;;;;;;;;;;11.30;99.90;;;;;;5152557;27;19930;-79
2023/05/11 03:27:10;;;;;;;;;;;11.30;99.90;;;;;;5166460;27;19922;-78
2023/05/11 03:29:37;;;;;;;;;;;11.30;99.90;;;;;;5141944;27;20407;-78
2023/05/11 03:32:03;;;;;;;;;;;11.30;99.90;;;;;;5126828;27;19923;-81
2023/05/11 03:34:29;;;;;;;;;;;11.30;99.90;;;;;;5147573;27;19934;-78
2023/05/11 03:36:55;;;;;;;;;;;11.30;99.90;;;;;;5113026;27;19937;-78
2023/05/11 03:39:21;;;;;;;;;;;11.30;99.90;;;;;;5133252;27;19946;-76
2023/05/11 03:41:48;;;;;;;;;;;11.30;99.90;;;;;;5146727;27;20319;-78
2023/05/11 03:44:16;;;;;;;;;;;11.30;99.90;;;;;;5149293;27;19937;-78
2023/05/11 03:46:42;;;;;;;;;;;11.30;99.90;;;;;;5148725;27;19975;-79
2023/05/11 03:49:08;;;;;;;;;;;11.20;99.90;;;;;;5147427;27;20457;-78
2023/05/11 03:51:34;;;;;;;;;;;11.20;99.90;;;;;;5163596;27;19931;-78
2023/05/11 03:54:00;;;;;;;;;;;11.30;99.90;;;;;;5144925;27;19927;-79
2023/05/11 03:56:26;;;;;;;;;;;11.30;99.90;;;;;;5159166;27;20009;-78
2023/05/11 03:58:51;;;;;;;;;;;11.20;99.90;;;;;;5129532;27;19934;-78
2023/05/11 04:01:17;;;;;;;;;;;11.20;99.90;;;;;;5160656;27;19991;-78
2023/05/11 04:03:47;;;;;;;;;;;11.20;99.90;;;;;;5143336;27;19970;-79
2023/05/11 04:06:13;;;;;;;;;;;11.20;99.90;;;;;;5150746;27;19969;-80
2023/05/11 04:08:38;;;;;;;;;;;11.30;99.90;;;;;;5167377;27;19985;-80
2023/05/11 04:11:04;;;;;;;;;;;11.20;99.90;;;;;;5115802;27;19937;-79
2023/05/11 04:13:30;;;;;;;;;;;11.20;99.90;;;;;;5152412;27;19922;-78
2023/05/11 04:15:55;;;;;;;;;;;11.20;99.90;;;;;;5161938;27;19929;-79
2023/05/11 04:18:21;;;;;;;;;;;11.20;99.90;;;;;;5147159;27;19934;-78
2023/05/11 04:20:46;;;;;;;;;;;11.20;99.90;;;;;;5159996;27;20017;-78
2023/05/11 04:23:12;;;;;;;;;;;11.20;99.90;;;;;;5141107;27;19954;-81
2023/05/11 04:25:37;;;;;;;;;;;11.20;99.90;;;;;;5131758;27;19933;-79
2023/05/11 04:28:03;;;;;;;;;;;11.20;99.90;;;;;;5143568;27;19931;-77
2023/05/11 04:30:28;;;;;;;;;;;11.20;99.90;;;;;;5147364;27;19927;-80
2023/05/11 04:32:54;;;;;;;;;;;11.20;99.90;;;;;;5162455;27;20328;-80
2023/05/11 04:35:20;;;;;;;;;;;11.20;99.90;;;;;;5163851;27;19927;-77
2023/05/11 04:37:46;;;;;;;;;;;11.20;99.90;;;;;;5117054;27;19977;-78
2023/05/11 04:40:12;;;;;;;;;;;11.20;99.90;;;;;;5145117;27;19977;-80
2023/05/11 04:42:37;;;;;;;;;;;11.20;99.90;;;;;;5141684;27;19937;-78
2023/05/11 04:45:03;;;;;;;;;;;11.30;99.90;;;;;;5132753;27;20007;-78
2023/05/11 04:47:28;;;;;;;;;;;11.20;99.90;;;;;;5158150;27;20424;-78
2023/05/11 04:49:54;;;;;;;;;;;11.20;99.90;;;;;;5146677;27;19971;-78
2023/05/11 04:52:20;;;;;;;;;;;11.20;99.90;;;;;;5138041;27;19931;-78
2023/05/11 04:54:45;;;;;;;;;;;11.30;99.90;;;;;;5161444;27;19930;-78
2023/05/11 04:57:11;;;;;;;;;;;11.20;99.90;;;;;;5129839;27;19927;-79
2023/05/11 04:59:36;;;;;;;;;;;11.20;99.90;;;;;;5144196;27;20019;-78
2023/05/11 05:02:02;;;;;;;;;;;11.20;99.90;;;;;;5171926;27;19923;-78
2023/05/11 05:04:27;;;;;;;;;;;11.30;99.90;;;;;;5132233;27;20386;-78
2023/05/11 05:06:53;;;;;;;;;;;11.20;99.90;;;;;;5163012;27;20018;-78
2023/05/11 05:09:19;;;;;;;;;;;11.30;99.90;;;;;;5165677;27;19993;-83
2023/05/11 05:11:44;;;;;;;;;;;11.20;99.90;;;;;;5143677;27;19934;-76
2023/05/11 05:14:10;;;;;;;;;;;11.30;99.90;;;;;;5156371;27;19923;-76
2023/05/11 05:16:35;;;;;;;;;;;11.30;99.90;;;;;;5139573;27;20357;-82
2023/05/11 05:19:01;;;;;;;;;;;11.30;99.90;;;;;;5141022;27;19926;-80
2023/05/11 05:21:26;;;;;;;;;;;11.40;99.90;;;;;;5158371;27;19930;-77
2023/05/11 05:23:52;;;;;;;;;;;11.40;99.90;;;;;;5148730;27;20426;-80
2023/05/11 05:26:18;;;;;;;;;;;11.40;99.90;;;;;;5122915;27;19966;-80
2023/05/11 05:28:43;;;;;;;;;;;11.50;99.90;;;;;;5151152;27;20271;-80
2023/05/11 05:31:09;;;;;;;;;;;11.50;99.90;;;;;;5133311;27;19971;-82
2023/05/11 05:33:34;;;;;;;;;;;11.60;99.90;;;;;;5169925;27;19923;-80
2023/05/11 05:36:00;;;;;;;;;;;11.60;99.90;;;;;;5148759;27;19927;-80
2023/05/11 05:38:25;;;;;;;;;;;11.60;99.90;;;;;;5149530;27;19927;-81
2023/05/11 05:40:51;;;;;;;;;;;11.70;99.90;;;;;;5151239;27;19931;-81
2023/05/11 05:43:17;;;;;;;;;;;11.70;99.90;;;;;;5155353;27;20375;-82
2023/05/11 05:45:42;;;;;;;;;;;11.80;99.90;;;;;;5130389;27;19930;-81
2023/05/11 05:48:08;;;;;;;;;;;11.80;99.90;;;;;;5130928;27;20074;-85
2023/05/11 05:50:34;;;;;;;;;;;11.90;99.90;;;;;;5123676;27;19938;-80
2023/05/11 05:53:00;;;;;;;;;;;11.90;99.90;;;;;;5129634;27;19930;-83
2023/05/11 05:55:25;;;;;;;;;;;11.90;99.90;;;;;;5155706;27;19929;-83
2023/05/11 05:57:51;;;;;;;;;;;11.90;99.90;;;;;;5156942;27;20025;-84
2023/05/11 06:00:16;;;;;;;;;;;12.00;99.90;;;;;;5126223;27;19930;-83
2023/05/11 06:02:42;;;;;;;;;;;12.00;99.90;;;;;;5156178;27;20009;-83
2023/05/11 06:05:08;;;;;;;;;;;12.00;99.90;;;;;;5157002;27;19922;-83
2023/05/11 06:07:33;;;;;;;;;;;12.10;99.90;;;;;;5155483;27;20401;-84
2023/05/11 06:09:59;;;;;;;;;;;12.10;99.90;;;;;;5156833;27;19923;-83
2023/05/11 06:12:25;;;;;;;;;;;12.20;99.90;;;;;;5155699;27;20013;-84
2023/05/11 06:14:51;;;;;;;;;;;12.20;99.90;;;;;;5157068;27;20103;-83
2023/05/11 06:17:16;;;;;;;;;;;12.30;99.90;;;;;;5138707;27;19927;-83
2023/05/11 06:19:42;;;;;;;;;;;12.30;99.90;;;;;;5142643;27;19929;-83
2023/05/11 06:22:07;;;;;;;;;;;12.40;99.90;;;;;;5155737;27;20044;-82
2023/05/11 06:24:33;;;;;;;;;;;12.40;99.90;;;;;;5156222;27;19946;-83
2023/05/11 06:26:59;;;;;;;;;;;12.50;99.90;;;;;;5155916;27;19927;-83
2023/05/11 06:29:24;;;;;;;;;;;12.60;99.90;;;;;;5127963;27;19922;-82
2023/05/11 06:31:51;;;;;;;;;;;12.60;99.90;;;;;;5137075;27;19971;-82
2023/05/11 06:34:18;;;;;;;;;;;12.70;99.90;;;;;;5126681;27;20022;-83
2023/05/11 06:36:43;;;;;;;;;;;12.70;99.90;;;;;;5154945;27;19931;-82
2023/05/11 06:39:09;;;;;;;;;;;12.80;99.90;;;;;;5156457;27;19923;-83
2023/05/11 06:41:35;;;;;;;;;;;12.80;99.90;;;;;;5153601;27;19999;-83
2023/05/11 06:44:00;;;;;;;;;;;12.90;99.90;;;;;;5110308;27;20435;-83
2023/05/11 06:46:26;;;;;;;;;;;12.90;99.90;;;;;;5142324;27;19933;-83
2023/05/11 06:48:51;;;;;;;;;;;13.00;99.90;;;;;;5147418;27;20177;-83
2023/05/11 06:51:17;;;;;;;;;;;13.10;99.90;;;;;;5136550;27;20389;-83
2023/05/11 06:53:43;;;;;;;;;;;13.10;99.90;;;;;;5129584;27;19976;-83
2023/05/11 06:56:08;;;;;;;;;;;13.30;99.90;;;;;;5136188;27;19927;-83
2023/05/11 06:58:34;;;;;;;;;;;13.30;99.90;;;;;;5137891;27;19934;-84
2023/05/11 07:01:01;;;;;;;;;;;13.30;99.90;;;;;;5154668;27;20022;-83
2023/05/11 07:03:26;;;;;;;;;;;13.30;99.90;;;;;;5138981;27;20378;-83
2023/05/11 07:05:52;;;;;;;;;;;13.30;99.90;;;;;;5153054;27;19933;-83
2023/05/11 07:08:17;;;;;;;;;;;13.30;99.90;;;;;;5127757;27;20405;-83
2023/05/11 07:10:43;;;;;;;;;;;13.40;99.90;;;;;;5152261;27;20034;-83
2023/05/11 07:13:09;;;;;;;;;;;13.30;99.90;;;;;;5127971;27;19927;-83
2023/05/11 07:15:35;;;;;;;;;;;13.40;99.90;;;;;;5137976;27;19938;-84
2023/05/11 07:18:00;;;;;;;;;;;13.40;99.90;;;;;;5148466;27;19927;-83
2023/05/11 07:20:26;;;;;;;;;;;13.30;99.90;;;;;;5148718;27;20026;-84
2023/05/11 07:22:55;;;;;;;;;;;13.30;99.90;;;;;;5148039;27;19923;-83
2023/05/11 07:25:20;;;;;;;;;;;13.20;99.90;;;;;;5134550;27;19923;-84
2023/05/11 07:27:46;;;;;;;;;;;13.10;99.90;;;;;;5120662;27;19934;-82
2023/05/11 07:30:11;;;;;;;;;;;13.10;99.90;;;;;;5119252;27;19927;-81
2023/05/11 07:32:37;;;;;;;;;;;13.00;99.90;;;;;;5151087;27;20480;-83
2023/05/11 07:35:04;;;;;;;;;;;12.90;99.90;;;;;;5155321;27;20442;-82
2023/05/11 07:37:29;;;;;;;;;;;12.80;99.90;;;;;;5141018;27;19933;-81
2023/05/11 07:39:55;;;;;;;;;;;12.70;99.90;;;;;;5136909;27;19923;-82
2023/05/11 07:42:20;;;;;;;;;;;12.70;99.90;;;;;;5154434;27;19923;-82
2023/05/11 07:44:46;;;;;;;;;;;12.60;99.90;;;;;;5154478;27;19926;-81
2023/05/11 07:47:12;;;;;;;;;;;12.60;99.90;;;;;;5154122;27;19934;-82
2023/05/11 07:49:37;;;;;;;;;;;12.60;99.90;;;;;;5155111;27;20018;-82
2023/05/11 07:52:03;;;;;;;;;;;12.60;99.90;;;;;;5152184;27;19958;-81
2023/05/11 07:54:28;;;;;;;;;;;12.50;99.90;;;;;;5173530;27;19926;-81
2023/05/11 07:56:54;;;;;;;;;;;12.40;99.90;;;;;;5148883;27;19929;-81
2023/05/11 07:59:20;;;;;;;;;;;12.40;99.90;;;;;;5146659;27;19927;-81
2023/05/11 08:01:45;;;;;;;;;;;12.30;99.90;;;;;;5153820;27;19929;-78
2023/05/11 08:04:11;;;;;;;;;;;12.30;99.90;;;;;;5155182;27;20371;-81
2023/05/11 08:06:37;;;;;;;;;;;12.40;99.90;;;;;;5148645;27;20014;-81
2023/05/11 08:09:02;;;;;;;;;;;12.40;99.90;;;;;;5146250;27;19919;-81
2023/05/11 08:11:28;;;;;;;;;;;12.40;99.90;;;;;;5147906;27;19975;-79
2023/05/11 08:13:53;;;;;;;;;;;12.30;99.90;;;;;;5133887;27;20294;-82
2023/05/11 08:16:20;;;;;;;;;;;12.30;99.90;;;;;;5133898;27;19927;-82
2023/05/11 08:18:45;;;;;;;;;;;12.30;99.90;;;;;;5134619;27;19976;-82
2023/05/11 08:21:11;;;;;;;;;;;12.40;99.90;;;;;;5140229;27;19927;-82
2023/05/11 08:23:36;;;;;;;;;;;12.40;99.90;;;;;;5154249;27;20016;-82
2023/05/11 08:26:02;;;;;;;;;;;12.50;99.90;;;;;;5151574;27;19923;-81
2023/05/11 08:28:27;;;;;;;;;;;12.60;99.90;;;;;;5144438;27;19923;-80
2023/05/11 08:30:56;;;;;;;;;;;12.70;99.90;;;;;;5133960;27;20426;-78
2023/05/11 08:33:22;;;;;;;;;;;12.70;99.90;;;;;;5154747;27;19933;-78
2023/05/11 08:35:48;;;;;;;;;;;12.60;99.90;;;;;;5170810;27;19923;-78
2023/05/11 08:38:13;;;;;;;;;;;12.60;99.90;;;;;;5172321;27;19978;-80
2023/05/11 08:40:46;;;;;;;;;;;12.50;99.90;;;;;;5151298;27;20411;-81
2023/05/11 08:43:12;;;;;;;;;;;12.50;99.90;;;;;;5136495;27;19957;-79
2023/05/11 08:45:40;;;;;;;;;;;12.50;99.90;;;;;;5153341;27;19923;-79
2023/05/11 08:48:05;;;;;;;;;;;12.50;99.90;;;;;;5172268;27;19927;-80
2023/05/11 08:50:31;;;;;;;;;;;12.50;99.90;;;;;;5147796;27;19927;-80
2023/05/11 08:52:57;;;;;;;;;;;12.40;99.90;;;;;;5129588;27;19931;-81
2023/05/11 08:55:24;;;;;;;;;;;12.50;99.90;;;;;;5171024;27;19976;-80
2023/05/11 08:57:52;;;;;;;;;;;12.50;99.90;;;;;;5172171;27;19923;-83
2023/05/11 09:00:18;;;;;;;;;;;12.50;99.90;;;;;;5140711;27;19922;-80
2023/05/11 09:02:44;;;;;;;;;;;12.50;99.90;;;;;;5153832;27;19931;-81
2023/05/11 09:05:10;;;;;;;;;;;12.50;99.90;;;;;;5154035;27;19930;-81
2023/05/11 09:07:37;;;;;;;;;;;12.60;99.90;;;;;;5135888;27;20350;-80
2023/05/11 09:10:03;;;;;;;;;;;12.60;99.90;;;;;;5132591;27;20284;-80
2023/05/11 09:12:29;;;;;;;;;;;12.70;99.90;;;;;;5147577;27;19982;-80
2023/05/11 09:14:55;;;;;;;;;;;12.70;99.90;;;;;;5153713;27;19930;-79
2023/05/11 09:17:24;;;;;;;;;;;12.60;99.90;;;;;;5135467;27;19923;-80
2023/05/11 09:20:00;;;;;;;;;;;12.80;99.90;;;;;;5133718;27;19942;-80
2023/05/11 09:22:26;;;;;;;;;;;12.90;99.90;;;;;;5129615;27;19988;-80
2023/05/11 09:24:51;;;;;;;;;;;12.90;99.90;;;;;;5160986;27;19927;-84
2023/05/11 09:27:17;;;;;;;;;;;12.90;99.90;;;;;;5151897;27;19974;-80
2023/05/11 09:29:43;;;;;;;;;;;12.90;99.90;;;;;;5141691;27;19922;-79
2023/05/11 09:32:08;;;;;;;;;;;13.00;99.90;;;;;;5122212;27;19933;-80
2023/05/11 09:34:34;;;;;;;;;;;13.10;99.90;;;;;;5142382;27;19930;-79
2023/05/11 09:37:00;;;;;;;;;;;13.20;99.90;;;;;;5168701;27;19923;-79
2023/05/11 09:39:30;;;;;;;;;;;13.30;99.90;;;;;;5124465;27;20367;-79
2023/05/11 09:42:10;;;;;;;;;;;13.40;99.90;;;;;;5152342;27;20394;-85
2023/05/11 09:44:35;;;;;;;;;;;13.50;99.90;;;;;;5157858;27;19926;-80
2023/05/11 09:47:09;;;;;;;;;;;13.70;99.90;;;;;;5174068;27;19945;-80
2023/05/11 09:49:34;;;;;;;;;;;13.80;99.90;;;;;;5146165;27;19931;-81
2023/05/11 09:52:00;;;;;;;;;;;14.10;99.90;;;;;;5141269;27;19929;-81
2023/05/11 09:54:25;;;;;;;;;;;14.20;99.90;;;;;;5157614;27;20017;-81
2023/05/11 09:57:01;;;;;;;;;;;14.10;99.90;;;;;;5126844;27;19927;-81
2023/05/11 09:59:40;;;;;;;;;;;14.00;99.90;;;;;;5156322;27;19950;-82
2023/05/11 10:02:18;;;;;;;;;;;14.00;99.90;;;;;;5127905;27;19923;-81
2023/05/11 10:04:43;;;;;;;;;;;13.90;99.90;;;;;;5142560;27;19933;-81
2023/05/11 10:07:09;;;;;;;;;;;13.90;99.90;;;;;;5129640;27;20360;-82
2023/05/11 10:09:35;;;;;;;;;;;13.90;99.90;;;;;;5152167;27;19930;-81
2023/05/11 10:12:01;;;;;;;;;;;14.00;99.90;;;;;;5156751;27;19991;-81
2023/05/11 10:14:28;;;;;;;;;;;14.00;99.90;;;;;;5142768;27;20431;-81
2023/05/11 10:16:55;;;;;;;;;;;14.00;99.90;;;;;;5146444;27;20345;-81
2023/05/11 10:19:21;;;;;;;;;;;14.00;99.90;;;;;;5159073;27;20122;-81
2023/05/11 10:21:46;;;;;;;;;;;14.00;99.90;;;;;;5156956;27;20371;-81
2023/05/11 10:24:12;;;;;;;;;;;14.00;99.90;;;;;;5155957;27;19923;-81
2023/05/11 10:26:38;;;;;;;;;;;14.20;99.90;;;;;;5157215;27;20346;-80
2023/05/11 10:29:04;;;;;;;;;;;14.20;99.90;;;;;;5143488;27;19931;-81
2023/05/11 10:31:31;;;;;;;;;;;14.30;99.90;;;;;;5156554;27;20358;-81
2023/05/11 10:33:57;;;;;;;;;;;14.40;99.90;;;;;;5171667;27;19986;-81
2023/05/11 10:36:23;;;;;;;;;;;14.40;99.90;;;;;;5153666;27;20293;-81
2023/05/11 10:38:49;;;;;;;;;;;14.40;99.90;;;;;;5155603;27;19927;-81
2023/05/11 10:41:35;;;;;;;;;;;14.60;99.90;;;;;;5152234;27;19931;-81
2023/05/11 10:44:01;;;;;;;;;;;14.70;99.90;;;;;;5126252;27;20265;-81
2023/05/11 10:46:33;;;;;;;;;;;14.80;99.90;;;;;;5152187;27;19927;-81
2023/05/11 10:48:58;;;;;;;;;;;14.80;99.90;;;;;;5152733;27;19930;-83
2023/05/11 10:51:24;;;;;;;;;;;14.90;99.90;;;;;;5149623;27;20102;-83
2023/05/11 10:53:56;;;;;;;;;;;14.90;99.90;;;;;;5140815;27;20341;-81
2023/05/11 10:56:40;;;;;;;;;;;15.00;99.90;;;;;;5139282;27;19990;-82
2023/05/11 10:59:08;;;;;;;;;;;15.30;99.90;;;;;;5133281;27;20379;-85
2023/05/11 11:01:34;;;;;;;;;;;15.60;99.90;;;;;;5145320;27;19977;-83
2023/05/11 11:04:04;;;;;;;;;;;15.70;99.90;;;;;;5144739;27;19927;-82
2023/05/11 11:06:30;;;;;;;;;;;16.00;99.90;;;;;;5149562;27;20347;-82
2023/05/11 11:08:59;;;;;;;;;;;16.40;99.90;;;;;;5135202;27;19927;-82
2023/05/11 11:11:36;;;;;;;;;;;16.70;99.90;;;;;;5151292;27;19927;-82
2023/05/11 11:14:04;;;;;;;;;;;16.70;99.90;;;;;;5138121;27;19949;-82
2023/05/11 11:16:30;;;;;;;;;;;16.60;99.90;;;;;;5151696;27;19969;-83
2023/05/11 11:19:14;;;;;;;;;;;16.50;99.90;;;;;;5131905;27;19963;-82
2023/05/11 11:21:41;;;;;;;;;;;16.50;99.90;;;;;;5153226;27;19923;-83
2023/05/11 11:24:07;;;;;;;;;;;16.80;99.90;;;;;;5151452;27;19931;-83
2023/05/11 11:26:46;;;;;;;;;;;16.90;99.90;;;;;;5134126;27;19968;-82
2023/05/11 11:29:11;;;;;;;;;;;17.10;99.90;;;;;;5119420;27;19934;-84
2023/05/11 11:31:38;;;;;;;;;;;17.30;99.90;;;;;;5131292;27;19923;-82
2023/05/11 11:34:22;;;;;;;;;;;17.50;99.90;;;;;;5148879;27;20390;-82
2023/05/11 11:36:53;;;;;;;;;;;17.50;99.90;;;;;;5150803;27;19923;-83
2023/05/11 11:39:24;;;;;;;;;;;17.80;99.90;;;;;;5138338;27;20019;-83
2023/05/11 11:42:03;;;;;;;;;;;18.20;99.90;;;;;;5169808;27;20401;-83
2023/05/11 11:44:29;;;;;;;;;;;18.60;99.90;;;;;;5134291;27;19927;-83
2023/05/11 11:47:13;;;;;;;;;;;18.60;99.90;;;;;;5151166;27;19933;-83
2023/05/11 11:49:39;;;;;;;;;;;18.40;99.90;;;;;;5155070;27;20473;-83
2023/05/11 11:52:09;;;;;;;;;;;18.00;99.90;;;;;;5152352;27;20067;-83
2023/05/11 11:54:43;;;;;;;;;;;17.80;99.90;;;;;;5152825;27;20454;-83
2023/05/11 11:57:42;;;;;;;;;;;18.10;99.90;;;;;;5140652;27;19922;-83
2023/05/11 12:00:11;;;;;;;;;;;18.20;84.70;;;;;;5069298;27;19971;-82
2023/05/11 12:02:41;;;;;;;;;;;18.30;99.90;;;;;;5142918;27;19985;-83
2023/05/11 12:05:17;;;;;;;;;;;18.30;77.10;;;;;;5152327;27;19990;-83
2023/05/11 12:07:43;;;;;;;;;;;18.00;1.00;;;;;;5141984;27;19923;-83
2023/05/11 12:10:11;;;;;;;;;;;17.70;1.00;;;;;;5154771;27;20398;-83
2023/05/11 12:12:37;;;;;;;;;;;17.60;32.00;;;;;;5141254;27;19973;-85
2023/05/11 12:15:05;;;;;;;;;;;17.70;99.90;;;;;;5154685;27;19969;-83
2023/05/11 12:17:33;;;;;;;;;;;18.10;99.90;;;;;;5139519;27;19927;-83
2023/05/11 12:20:12;;;;;;;;;;;18.50;88.60;;;;;;5143626;27;19930;-83
2023/05/11 12:22:37;;;;;;;;;;;18.70;90.50;;;;;;5135220;27;19919;-83
2023/05/11 12:25:07;;;;;;;;;;;18.70;1.00;;;;;;5145668;27;20147;-83
2023/05/11 12:27:33;;;;;;;;;;;18.90;62.20;;;;;;5131830;27;19958;-83
2023/05/11 12:29:59;;;;;;;;;;;19.30;78.00;;;;;;5116979;27;19978;-83
2023/05/11 12:32:26;;;;;;;;;;;19.50;1.00;;;;;;5145696;27;19934;-83
2023/05/11 12:34:59;;;;;;;;;;;19.40;1.00;;;;;;5153126;27;19927;-84
2023/05/11 12:37:24;;;;;;;;;;;19.10;1.00;;;;;;5135064;27;19931;-84
2023/05/11 12:39:54;;;;;;;;;;;19.20;1.00;;;;;;5153486;27;19930;-83
2023/05/11 12:42:20;;;;;;;;;;;19.00;99.90;;;;;;5153155;27;19979;-85
2023/05/11 12:44:45;;;;;;;;;;;18.70;1.00;;;;;;5136494;27;19923;-83
2023/05/11 12:47:11;;;;;;;;;;;18.50;99.90;;;;;;5153330;27;20291;-84
2023/05/11 12:49:37;;;;;;;;;;;18.40;1.00;;;;;;5154016;27;20356;-84
2023/05/11 12:52:07;;;;;;;;;;;18.40;1.00;;;;;;5152228;27;20382;-84
2023/05/11 12:54:34;;;;;;;;;;;18.20;1.00;;;;;;5153768;27;19923;-84
2023/05/11 12:57:01;;;;;;;;;;;18.00;1.00;;;;;;5152771;27;19945;-84
2023/05/11 12:59:28;;;;;;;;;;;18.00;1.00;;;;;;5136083;27;19926;-84
2023/05/11 13:01:55;;;;;;;;;;;18.00;1.00;;;;;;5152406;27;19931;-83
2023/05/11 13:04:27;;;;;;;;;;;18.10;1.00;;;;;;5135888;27;19927;-85
2023/05/11 13:06:53;;;;;;;;;;;18.20;1.00;;;;;;5159142;27;19922;-84
2023/05/11 13:09:23;;;;;;;;;;;18.20;1.00;;;;;;5117834;27;19926;-84
2023/05/11 13:11:48;;;;;;;;;;;18.30;99.90;;;;;;5153541;27;19923;-84
2023/05/11 13:14:15;;;;;;;;;;;18.30;99.90;;;;;;5134709;27;19931;-85
2023/05/11 13:16:51;;;;;;;;;;;18.30;99.90;;;;;;5144317;27;20565;-85
2023/05/11 13:19:25;;;;;;;;;;;18.20;99.90;;;;;;5127206;27;19933;-85
2023/05/11 13:21:51;;;;;;;;;;;18.10;99.90;;;;;;5157851;27;20483;-84
2023/05/11 13:24:20;;;;;;;;;;;17.90;1.00;;;;;;5139472;27;19975;-84
2023/05/11 13:26:46;;;;;;;;;;;17.80;1.00;;;;;;5157759;27;20516;-83
2023/05/11 13:29:12;;;;;;;;;;;17.70;99.90;;;;;;5142868;27;19934;-84
2023/05/11 13:31:41;;;;;;;;;;;17.70;1.00;;;;;;5131990;27;19926;-84
2023/05/11 13:34:07;;;;;;;;;;;17.70;99.90;;;;;;5127129;27;19927;-84
2023/05/11 13:36:32;;;;;;;;;;;17.70;99.90;;;;;;5157257;27;19923;-84
2023/05/11 13:38:58;;;;;;;;;;;17.60;99.90;;;;;;5156886;27;19978;-84
2023/05/11 13:41:24;;;;;;;;;;;17.60;99.90;;;;;;5153173;27;19983;-84
2023/05/11 13:43:49;;;;;;;;;;;17.60;99.90;;;;;;5151421;27;19934;-84
2023/05/11 13:46:15;;;;;;;;;;;17.50;99.90;;;;;;5143290;27;19946;-85
2023/05/11 13:48:41;;;;;;;;;;;17.40;1.00;;;;;;5133311;27;19970;-84
2023/05/11 13:51:06;;;;;;;;;;;17.40;99.90;;;;;;5153476;27;20062;-84
2023/05/11 13:53:32;;;;;;;;;;;17.40;99.90;;;;;;5134508;27;19946;-85
2023/05/11 13:55:58;;;;;;;;;;;17.50;99.90;;;;;;5145172;27;19930;-84
2023/05/11 13:58:23;;;;;;;;;;;17.60;99.90;;;;;;5135281;27;19923;-84
2023/05/11 14:00:49;;;;;;;;;;;17.60;99.90;;;;;;5141879;27;20011;-84
2023/05/11 14:03:14;;;;;;;;;;;17.60;97.20;;;;;;5120901;27;19982;-84
2023/05/11 14:05:40;;;;;;;;;;;17.60;99.90;;;;;;5141230;27;19923;-84
2023/05/11 14:08:05;;;;;;;;;;;17.60;44.10;;;;;;5121078;27;20075;-84
2023/05/11 14:10:31;;;;;;;;;;;17.60;1.00;;;;;;5123947;27;19934;-84
2023/05/11 14:12:57;;;;;;;;;;;17.70;1.00;;;;;;5151442;27;19926;-83
2023/05/11 14:15:22;;;;;;;;;;;17.70;1.00;;;;;;5153839;27;19923;-84
2023/05/11 14:17:48;;;;;;;;;;;17.80;1.00;;;;;;5135291;27;20052;-83